createdAt,value
2022-10-28T00:00:24.558Z,96.20
2022-10-28T00:01:27.548Z,96.44
2022-10-28T00:02:29.071Z,96.22
2022-10-28T00:03:30.590Z,95.96
2022-10-28T00:04:32.253Z,96.36
2022-10-28T00:05:34.226Z,96.51
2022-10-28T00:06:36.802Z,96.83
2022-10-28T00:07:38.227Z,98.11
2022-10-28T00:08:40.306Z,97.41
2022-10-28T00:09:41.712Z,97.09
2022-10-28T00:10:43.130Z,97.46
2022-10-28T00:11:44.574Z,97.64
2022-10-28T00:12:46.097Z,97.32
2022-10-28T00:13:48.251Z,96.78
2022-10-28T00:14:49.716Z,96.72
2022-10-28T00:15:51.135Z,96.51
2022-10-28T00:16:53.979Z,96.53
2022-10-28T00:17:55.849Z,96.59
2022-10-28T00:18:58.611Z,96.68
2022-10-28T00:20:00.058Z,96.74
2022-10-28T00:21:02.113Z,96.93
2022-10-28T00:22:03.570Z,97.01
2022-10-28T00:23:05.257Z,97.30
2022-10-28T00:24:08.168Z,97.23
2022-10-28T00:25:10.368Z,97.34
2022-10-28T00:26:13.849Z,97.29
2022-10-28T00:27:15.270Z,97.36
2022-10-28T00:28:16.684Z,96.92
2022-10-28T00:29:19.505Z,96.84
2022-10-28T00:30:21.054Z,96.62
2022-10-28T00:31:24.883Z,96.50
2022-10-28T00:32:29.859Z,96.63
2022-10-28T00:33:31.424Z,97.33
2022-10-28T00:34:32.841Z,97.24
2022-10-28T00:35:34.278Z,97.01
2022-10-28T00:36:37.840Z,97.04
2022-10-28T00:37:39.228Z,96.90
2022-10-28T00:38:41.932Z,96.82
2022-10-28T00:39:43.360Z,96.60
2022-10-28T00:40:44.781Z,96.66
2022-10-28T00:41:48.426Z,96.64
2022-10-28T00:42:49.971Z,96.73
2022-10-28T00:43:53.170Z,96.81
2022-10-28T00:44:57.250Z,96.83
2022-10-28T00:45:58.716Z,97.24
2022-10-28T00:47:00.277Z,96.85
2022-10-28T00:48:04.590Z,96.79
2022-10-28T00:49:14.965Z,96.40
2022-10-28T00:50:30.030Z,96.27
2022-10-28T00:51:35.287Z,96.45
2022-10-28T00:52:37.515Z,96.42
2022-10-28T00:53:42.516Z,96.58
2022-10-28T00:54:45.546Z,96.50
2022-10-28T00:55:48.890Z,96.74
2022-10-28T00:56:53.468Z,96.64
2022-10-28T00:57:56.715Z,97.02
2022-10-28T00:59:01.087Z,97.22
2022-10-28T01:00:06.013Z,97.30
2022-10-28T01:01:07.560Z,96.83
2022-10-28T01:02:09.321Z,96.91
2022-10-28T01:03:12.184Z,96.78
2022-10-28T01:04:13.771Z,96.98
2022-10-28T01:05:18.931Z,97.00
2022-10-28T01:06:20.391Z,96.70
2022-10-28T01:07:22.324Z,96.38
2022-10-28T01:08:23.736Z,96.86
2022-10-28T01:10:46.071Z,96.44
2022-10-28T01:12:00.501Z,96.70
2022-10-28T01:13:11.198Z,96.34
2022-10-28T01:14:20.325Z,96.52
2022-10-28T01:15:31.860Z,96.23
2022-10-28T01:16:41.999Z,96.45
2022-10-28T01:17:56.155Z,96.80
2022-10-28T01:19:18.409Z,97.03
2022-10-28T01:20:56.335Z,97.39
2022-10-28T01:22:13.450Z,97.32
2022-10-28T01:23:21.277Z,97.11
2022-10-28T01:24:48.574Z,97.17
2022-10-28T01:26:05.601Z,97.56
2022-10-28T01:27:38.432Z,97.08
2022-10-28T01:29:16.473Z,97.05
2022-10-28T01:30:19.953Z,96.74
2022-10-28T01:31:38.006Z,96.34
2022-10-28T01:32:50.627Z,96.55
2022-10-28T01:33:58.289Z,96.62
2022-10-28T01:35:09.580Z,96.88
2022-10-28T01:36:15.060Z,96.78
2022-10-28T01:37:23.566Z,96.40
2022-10-28T01:38:32.544Z,96.73
2022-10-28T01:39:41.509Z,97.20
2022-10-28T01:40:50.763Z,97.03
2022-10-28T01:41:58.365Z,97.25
2022-10-28T01:43:08.814Z,97.08
2022-10-28T01:44:21.768Z,97.50
2022-10-28T01:45:28.626Z,97.69
2022-10-28T01:46:39.680Z,98.25
2022-10-28T01:47:50.219Z,97.92
2022-10-28T01:48:55.926Z,97.44
2022-10-28T01:50:02.395Z,97.16
2022-10-28T01:51:08.254Z,97.41
2022-10-28T01:52:13.595Z,97.40
2022-10-28T01:53:20.738Z,97.02
2022-10-28T01:54:25.143Z,97.16
2022-10-28T01:55:33.784Z,97.13
2022-10-28T01:56:37.793Z,97.17
2022-10-28T01:57:41.914Z,97.20
2022-10-28T01:58:44.559Z,97.25
2022-10-28T01:59:48.174Z,96.98
2022-10-28T02:00:50.885Z,96.69
2022-10-28T02:01:54.174Z,96.72
2022-10-28T02:02:56.420Z,96.46
2022-10-28T02:03:58.457Z,96.80
2022-10-28T02:05:22.406Z,96.79
2022-10-28T02:06:27.422Z,96.86
2022-10-28T02:07:28.930Z,96.72
2022-10-28T02:08:42.434Z,96.39
2022-10-28T02:10:01.031Z,96.20
2022-10-28T02:11:23.982Z,96.12
2022-10-28T02:12:28.669Z,96.28
2022-10-28T02:13:39.297Z,97.56
2022-10-28T02:14:58.937Z,96.55
2022-10-28T02:16:07.390Z,96.53
2022-10-28T02:17:21.006Z,96.97
2022-10-28T02:18:30.236Z,96.65
2022-10-28T02:19:35.585Z,97.02
2022-10-28T02:20:43.373Z,96.39
2022-10-28T02:21:52.559Z,96.62
2022-10-28T02:23:01.432Z,96.82
2022-10-28T02:24:10.601Z,97.01
2022-10-28T02:25:17.016Z,96.66
2022-10-28T02:26:24.500Z,96.68
2022-10-28T02:27:33.396Z,96.62
2022-10-28T02:28:41.302Z,96.50
2022-10-28T02:29:49.440Z,96.61
2022-10-28T02:30:56.116Z,96.62
2022-10-28T02:32:01.699Z,96.43
2022-10-28T02:33:09.663Z,97.17
2022-10-28T02:34:16.537Z,96.90
2022-10-28T02:35:24.265Z,96.97
2022-10-28T02:36:29.631Z,96.60
2022-10-28T02:37:34.084Z,96.51
2022-10-28T02:38:39.408Z,96.84
2022-10-28T02:39:45.035Z,96.27
2022-10-28T02:42:00.457Z,95.84
2022-10-28T02:43:05.743Z,95.70
2022-10-28T02:44:10.176Z,95.49
2022-10-28T02:45:15.411Z,95.18
2022-10-28T02:46:18.911Z,95.02
2022-10-28T02:47:26.309Z,94.96
2022-10-28T02:48:33.565Z,95.01
2022-10-28T02:49:38.161Z,94.68
2022-10-28T02:50:44.553Z,94.48
2022-10-28T02:51:51.042Z,93.94
2022-10-28T02:52:58.702Z,93.69
2022-10-28T02:54:04.146Z,93.25
2022-10-28T02:55:06.835Z,93.30
2022-10-28T02:56:09.753Z,93.22
2022-10-28T02:57:15.008Z,92.95
2022-10-28T02:58:16.555Z,92.72
2022-10-28T02:59:18.230Z,92.44
2022-10-28T03:00:21.998Z,92.56
2022-10-28T03:01:23.636Z,92.07
2022-10-28T03:02:26.026Z,91.88
2022-10-28T03:03:29.083Z,91.58
2022-10-28T03:04:30.889Z,91.71
2022-10-28T03:05:32.356Z,91.38
2022-10-28T03:06:33.834Z,91.28
2022-10-28T03:07:35.279Z,91.25
2022-10-28T03:08:36.879Z,91.13
2022-10-28T03:09:38.289Z,90.77
2022-10-28T03:10:39.724Z,90.53
2022-10-28T03:11:41.180Z,90.72
2022-10-28T03:12:42.628Z,90.52
2022-10-28T03:13:44.050Z,90.59
2022-10-28T03:14:45.457Z,90.49
2022-10-28T03:15:47.211Z,90.56
2022-10-28T03:16:48.682Z,90.65
2022-10-28T03:17:50.165Z,90.57
2022-10-28T03:18:54.220Z,90.46
2022-10-28T03:19:55.716Z,90.75
2022-10-28T03:20:59.019Z,91.66
2022-10-28T03:22:00.746Z,91.86
2022-10-28T03:23:02.150Z,91.90
2022-10-28T03:24:03.969Z,91.83
2022-10-28T03:25:05.903Z,91.60
2022-10-28T03:26:07.355Z,91.08
2022-10-28T03:27:08.814Z,91.50
2022-10-28T03:28:10.272Z,91.87
2022-10-28T03:29:11.747Z,91.57
2022-10-28T03:30:13.244Z,91.41
2022-10-28T03:31:14.729Z,91.61
2022-10-28T03:32:16.210Z,91.55
2022-10-28T03:33:17.719Z,91.78
2022-10-28T03:34:20.480Z,91.59
2022-10-28T03:35:21.878Z,92.25
2022-10-28T03:36:23.333Z,92.38
2022-10-28T03:37:24.840Z,92.37
2022-10-28T03:38:26.280Z,92.42
2022-10-28T03:39:27.739Z,92.77
2022-10-28T03:40:29.192Z,92.78
2022-10-28T03:41:30.772Z,92.77
2022-10-28T03:42:32.241Z,93.01
2022-10-28T03:43:33.679Z,93.06
2022-10-28T03:44:35.159Z,92.78
2022-10-28T03:45:36.581Z,93.04
2022-10-28T03:46:38.032Z,93.40
2022-10-28T03:47:39.907Z,93.12
2022-10-28T03:48:41.350Z,93.43
2022-10-28T03:49:44.153Z,93.38
2022-10-28T03:50:45.608Z,93.94
2022-10-28T03:51:47.072Z,94.34
2022-10-28T03:52:48.496Z,95.23
2022-10-28T03:53:49.969Z,95.15
2022-10-28T03:54:51.420Z,94.68
2022-10-28T03:55:53.304Z,95.11
2022-10-28T03:56:54.726Z,94.77
2022-10-28T03:57:56.401Z,94.40
2022-10-28T03:58:58.243Z,94.30
2022-10-28T03:59:59.706Z,94.22
2022-10-28T04:01:01.216Z,94.25
2022-10-28T04:02:02.759Z,94.27
2022-10-28T04:03:04.401Z,94.19
2022-10-28T04:04:06.379Z,94.60
2022-10-28T04:05:09.417Z,94.35
2022-10-28T04:06:10.852Z,93.97
2022-10-28T04:07:12.268Z,94.17
2022-10-28T04:08:13.790Z,94.43
2022-10-28T04:09:15.249Z,94.80
2022-10-28T04:10:17.258Z,94.52
2022-10-28T04:11:18.666Z,94.60
2022-10-28T04:12:20.159Z,94.88
2022-10-28T04:13:21.618Z,94.61
2022-10-28T04:14:23.042Z,94.63
2022-10-28T04:15:24.588Z,94.94
2022-10-28T04:16:26.090Z,94.60
2022-10-28T04:17:27.538Z,94.70
2022-10-28T04:18:29.246Z,94.43
2022-10-28T04:19:30.721Z,94.57
2022-10-28T04:20:33.981Z,94.70
2022-10-28T04:21:35.497Z,95.22
2022-10-28T04:22:36.959Z,95.65
2022-10-28T04:23:38.441Z,96.22
2022-10-28T04:24:39.848Z,95.91
2022-10-28T04:25:41.287Z,95.70
2022-10-28T04:26:42.744Z,96.24
2022-10-28T04:27:44.533Z,96.61
2022-10-28T04:28:46.001Z,97.31
2022-10-28T04:29:47.451Z,97.44
2022-10-28T04:30:48.940Z,98.36
2022-10-28T04:31:52.285Z,98.48
2022-10-28T04:32:53.945Z,98.54
2022-10-28T04:33:55.405Z,98.27
2022-10-28T04:34:56.909Z,97.79
2022-10-28T04:35:59.700Z,97.99
2022-10-28T04:37:01.159Z,97.51
2022-10-28T04:38:02.606Z,97.16
2022-10-28T04:39:04.356Z,96.85
2022-10-28T04:40:07.852Z,96.41
2022-10-28T04:41:12.491Z,95.91
2022-10-28T04:42:13.993Z,95.99
2022-10-28T04:43:15.571Z,96.06
2022-10-28T04:44:16.988Z,96.30
2022-10-28T04:45:18.473Z,95.51
2022-10-28T04:46:19.921Z,94.92
2022-10-28T04:47:21.339Z,94.60
2022-10-28T04:48:22.779Z,94.21
2022-10-28T04:49:24.216Z,94.31
2022-10-28T04:50:26.245Z,93.26
2022-10-28T04:51:29.006Z,93.28
2022-10-28T04:52:30.467Z,93.90
2022-10-28T04:53:31.945Z,93.91
2022-10-28T04:54:33.424Z,94.61
2022-10-28T04:55:34.836Z,94.32
2022-10-28T04:56:36.298Z,94.24
2022-10-28T04:57:37.729Z,94.28
2022-10-28T04:58:39.122Z,94.90
2022-10-28T04:59:40.562Z,95.64
2022-10-28T05:00:42.037Z,95.53
2022-10-28T05:01:43.547Z,95.75
2022-10-28T05:02:46.143Z,96.44
2022-10-28T05:03:47.758Z,96.15
2022-10-28T05:04:49.233Z,96.12
2022-10-28T05:05:50.731Z,96.55
2022-10-28T05:06:54.059Z,97.05
2022-10-28T05:07:55.914Z,97.05
2022-10-28T05:08:57.574Z,97.32
2022-10-28T05:09:58.981Z,97.15
2022-10-28T05:11:00.497Z,97.05
2022-10-28T05:12:01.925Z,97.88
2022-10-28T05:13:03.343Z,97.84
2022-10-28T05:14:04.779Z,97.64
2022-10-28T05:15:07.909Z,98.19
2022-10-28T05:16:09.425Z,98.43
2022-10-28T05:17:11.596Z,97.60
2022-10-28T05:18:13.206Z,97.93
2022-10-28T05:19:14.698Z,98.07
2022-10-28T05:20:17.552Z,98.24
2022-10-28T05:21:19.082Z,98.08
2022-10-28T05:22:21.845Z,97.60
2022-10-28T05:23:27.073Z,97.17
2022-10-28T05:24:30.051Z,97.13
2022-10-28T05:25:31.557Z,96.53
2022-10-28T05:26:32.989Z,96.66
2022-10-28T05:27:34.540Z,96.65
2022-10-28T05:28:36.008Z,96.33
2022-10-28T05:29:37.473Z,96.65
2022-10-28T05:30:38.923Z,96.58
2022-10-28T05:31:40.372Z,96.14
2022-10-28T05:32:41.979Z,96.10
2022-10-28T05:33:43.449Z,95.64
2022-10-28T05:34:44.907Z,95.20
2022-10-28T05:35:46.564Z,94.93
2022-10-28T05:36:48.001Z,94.94
2022-10-28T05:37:50.852Z,94.98
2022-10-28T05:38:52.251Z,94.88
2022-10-28T05:39:54.245Z,94.92
2022-10-28T05:40:55.667Z,95.14
2022-10-28T05:41:57.302Z,95.31
2022-10-28T05:42:58.847Z,95.22
2022-10-28T05:44:00.267Z,95.03
2022-10-28T05:45:01.753Z,95.02
2022-10-28T05:46:03.282Z,95.64
2022-10-28T05:47:04.758Z,95.12
2022-10-28T05:48:06.942Z,95.19
2022-10-28T05:49:08.986Z,95.08
2022-10-28T05:50:10.961Z,94.88
2022-10-28T05:51:12.369Z,96.09
2022-10-28T05:52:13.751Z,95.89
2022-10-28T05:53:16.805Z,96.09
2022-10-28T05:54:18.548Z,95.82
2022-10-28T05:55:21.705Z,96.28
2022-10-28T05:56:23.117Z,96.64
2022-10-28T05:57:24.516Z,97.18
2022-10-28T05:58:25.983Z,97.41
2022-10-28T05:59:27.441Z,97.90
2022-10-28T06:00:29.627Z,97.61
2022-10-28T06:03:02.284Z,98.26
2022-10-28T06:04:04.257Z,98.03
2022-10-28T06:05:06.268Z,97.82
2022-10-28T06:06:07.999Z,97.60
2022-10-28T06:07:09.658Z,97.22
2022-10-28T06:08:11.678Z,97.10
2022-10-28T06:09:14.448Z,97.00
2022-10-28T06:10:16.011Z,96.83
2022-10-28T06:11:15.975Z,96.65
2022-10-28T06:12:17.434Z,96.42
2022-10-28T06:13:19.346Z,96.78
2022-10-28T06:14:20.798Z,96.38
2022-10-28T06:15:22.557Z,96.22
2022-10-28T06:16:24.046Z,96.66
2022-10-28T06:17:25.601Z,96.59
2022-10-28T06:18:27.111Z,96.32
2022-10-28T06:19:28.552Z,96.59
2022-10-28T06:20:30.648Z,96.53
2022-10-28T06:21:32.122Z,96.85
2022-10-28T06:22:33.534Z,97.35
2022-10-28T06:23:35.329Z,97.39
2022-10-28T06:24:38.132Z,97.24
2022-10-28T06:25:39.591Z,96.62
2022-10-28T06:26:41.599Z,96.55
2022-10-28T06:27:43.188Z,97.00
2022-10-28T06:28:45.986Z,96.67
2022-10-28T06:29:47.514Z,97.17
2022-10-28T06:30:48.994Z,97.37
2022-10-28T06:31:50.433Z,97.44
2022-10-28T06:32:54.408Z,97.04
2022-10-28T06:33:55.836Z,96.96
2022-10-28T06:34:57.689Z,97.24
2022-10-28T06:35:59.824Z,97.07
2022-10-28T06:37:01.258Z,96.31
2022-10-28T06:38:05.971Z,96.64
2022-10-28T06:39:10.806Z,96.79
2022-10-28T06:40:13.664Z,96.49
2022-10-28T06:41:15.076Z,96.55
2022-10-28T06:42:16.634Z,96.18
2022-10-28T06:43:18.148Z,96.12
2022-10-28T06:44:19.595Z,96.77
2022-10-28T06:45:21.021Z,96.55
2022-10-28T06:46:22.463Z,97.05
2022-10-28T06:47:25.519Z,96.65
2022-10-28T06:48:26.973Z,97.30
2022-10-28T06:49:28.455Z,97.38
2022-10-28T06:50:32.869Z,97.68
2022-10-28T06:51:34.416Z,97.64
2022-10-28T06:52:35.926Z,98.12
2022-10-28T06:53:37.420Z,98.09
2022-10-28T06:54:38.901Z,97.78
2022-10-28T06:55:41.715Z,97.71
2022-10-28T06:56:43.203Z,98.13
2022-10-28T06:57:44.682Z,97.76
2022-10-28T06:58:49.606Z,97.89
2022-10-28T06:59:51.026Z,98.54
2022-10-28T07:00:52.647Z,98.40
2022-10-28T07:01:54.173Z,98.52
2022-10-28T07:02:56.528Z,97.71
2022-10-28T07:03:58.236Z,97.93
2022-10-28T07:04:59.662Z,97.41
2022-10-28T07:06:01.711Z,97.56
2022-10-28T07:07:03.449Z,97.24
2022-10-28T07:08:05.596Z,96.93
2022-10-28T07:09:07.701Z,97.20
2022-10-28T07:10:09.387Z,97.46
2022-10-28T07:11:12.138Z,96.99
2022-10-28T07:12:13.573Z,96.53
2022-10-28T07:13:15.003Z,96.61
2022-10-28T07:14:16.463Z,95.52
2022-10-28T07:15:17.945Z,95.58
2022-10-28T07:16:19.400Z,95.66
2022-10-28T07:17:20.886Z,95.52
2022-10-28T07:18:23.053Z,95.42
2022-10-28T07:19:24.493Z,95.10
2022-10-28T07:20:27.880Z,95.28
2022-10-28T07:21:29.366Z,94.80
2022-10-28T07:22:30.880Z,94.92
2022-10-28T07:23:32.404Z,94.79
2022-10-28T07:24:33.920Z,95.58
2022-10-28T07:25:35.503Z,94.74
2022-10-28T07:26:38.323Z,94.10
2022-10-28T07:27:39.855Z,93.68
2022-10-28T07:28:41.301Z,93.87
2022-10-28T07:29:42.805Z,93.67
2022-10-28T07:30:44.361Z,93.31
2022-10-28T07:31:45.838Z,93.15
2022-10-28T07:32:48.213Z,92.93
2022-10-28T07:33:51.877Z,92.77
2022-10-28T07:34:53.304Z,92.43
2022-10-28T07:35:54.978Z,92.12
2022-10-28T07:36:56.558Z,92.65
2022-10-28T07:37:58.084Z,91.94
2022-10-28T07:38:59.571Z,92.26
2022-10-28T07:40:00.993Z,92.52
2022-10-28T07:41:04.720Z,91.99
2022-10-28T07:42:07.511Z,91.96
2022-10-28T07:43:08.971Z,92.45
2022-10-28T07:44:10.568Z,92.72
2022-10-28T07:45:12.095Z,92.68
2022-10-28T07:46:13.916Z,92.59
2022-10-28T07:47:15.391Z,92.83
2022-10-28T07:48:16.828Z,92.67
2022-10-28T07:49:18.258Z,92.44
2022-10-28T07:50:19.825Z,92.66
2022-10-28T07:51:21.262Z,92.84
2022-10-28T07:52:23.022Z,92.96
2022-10-28T07:53:27.764Z,93.64
2022-10-28T07:54:30.366Z,93.35
2022-10-28T07:55:31.787Z,94.18
2022-10-28T07:56:33.212Z,93.73
2022-10-28T07:57:36.202Z,92.97
2022-10-28T07:58:37.641Z,92.92
2022-10-28T07:59:39.158Z,92.19
2022-10-28T08:00:40.652Z,92.52
2022-10-28T08:01:42.255Z,92.22
2022-10-28T08:02:43.907Z,91.54
2022-10-28T08:03:45.646Z,91.59
2022-10-28T08:04:47.209Z,91.56
2022-10-28T08:05:48.649Z,91.82
2022-10-28T08:06:50.152Z,92.35
2022-10-28T08:07:51.935Z,91.70
2022-10-28T08:08:55.742Z,92.26
2022-10-28T08:09:57.164Z,91.26
2022-10-28T08:10:58.611Z,91.67
2022-10-28T08:12:00.184Z,91.51
2022-10-28T08:13:03.136Z,91.34
2022-10-28T08:14:04.573Z,91.11
2022-10-28T08:15:06.840Z,91.35
2022-10-28T08:16:09.225Z,90.92
2022-10-28T08:17:10.924Z,91.11
2022-10-28T08:18:12.378Z,91.19
2022-10-28T08:19:14.015Z,90.71
2022-10-28T08:20:15.725Z,90.89
2022-10-28T08:21:17.194Z,91.17
2022-10-28T08:22:18.733Z,90.50
2022-10-28T08:23:20.189Z,90.65
2022-10-28T08:24:21.630Z,90.37
2022-10-28T08:25:23.053Z,90.04
2022-10-28T08:26:24.527Z,89.62
2022-10-28T08:27:25.944Z,89.29
2022-10-28T08:28:28.966Z,89.31
2022-10-28T08:29:30.498Z,89.09
2022-10-28T08:30:40.314Z,89.41
2022-10-28T08:31:42.238Z,89.48
2022-10-28T08:32:43.884Z,89.40
2022-10-28T08:33:45.364Z,88.72
2022-10-28T08:34:46.790Z,88.69
2022-10-28T08:35:51.245Z,88.43
2022-10-28T08:36:52.940Z,88.27
2022-10-28T08:37:54.640Z,88.04
2022-10-28T08:38:56.630Z,88.52
2022-10-28T08:39:58.226Z,88.45
2022-10-28T08:41:12.664Z,88.14
2022-10-28T08:42:33.276Z,88.43
2022-10-28T08:43:57.220Z,88.51
2022-10-28T08:45:20.034Z,88.54
2022-10-28T08:46:30.688Z,88.18
2022-10-28T08:47:42.226Z,88.44
2022-10-28T08:48:43.965Z,88.07
2022-10-28T08:49:51.310Z,88.62
2022-10-28T08:50:57.871Z,88.41
2022-10-28T08:52:05.370Z,88.82
2022-10-28T08:53:14.662Z,88.60
2022-10-28T08:54:20.552Z,88.96
2022-10-28T08:55:28.262Z,89.21
2022-10-28T08:56:33.478Z,89.16
2022-10-28T08:57:38.776Z,89.19
2022-10-28T08:58:43.936Z,89.00
2022-10-28T08:59:46.353Z,89.27
2022-10-28T09:00:52.445Z,88.40
2022-10-28T09:01:59.718Z,88.64
2022-10-28T09:03:16.176Z,88.98
2022-10-28T09:04:26.414Z,88.95
2022-10-28T09:05:28.135Z,88.23
2022-10-28T09:06:30.553Z,87.86
2022-10-28T09:07:35.636Z,87.54
2022-10-28T09:08:40.461Z,87.53
2022-10-28T09:09:42.257Z,87.50
2022-10-28T09:10:58.994Z,87.44
2022-10-28T09:12:12.857Z,87.03
2022-10-28T09:13:24.025Z,86.06
2022-10-28T09:14:47.627Z,86.88
2022-10-28T09:15:58.629Z,86.31
2022-10-28T09:17:15.043Z,86.95
2022-10-28T09:18:19.167Z,86.21
2022-10-28T09:19:35.036Z,86.61
2022-10-28T09:20:50.363Z,86.61
2022-10-28T09:22:05.876Z,87.29
2022-10-28T09:23:18.984Z,86.12
2022-10-28T09:24:25.630Z,85.95
2022-10-28T09:25:36.451Z,85.41
2022-10-28T09:26:49.030Z,85.63
2022-10-28T09:28:04.430Z,85.79
2022-10-28T09:29:31.303Z,85.76
2022-10-28T09:30:46.004Z,86.38
2022-10-28T09:31:52.140Z,85.94
2022-10-28T09:33:05.589Z,86.52
2022-10-28T09:34:26.832Z,86.69
2022-10-28T09:35:33.677Z,86.48
2022-10-28T09:36:39.520Z,86.05
2022-10-28T09:37:45.702Z,85.73
2022-10-28T09:38:50.931Z,86.01
2022-10-28T09:39:56.373Z,86.18
2022-10-28T09:41:01.893Z,85.74
2022-10-28T09:42:04.452Z,85.71
2022-10-28T09:43:11.415Z,86.05
2022-10-28T09:44:18.813Z,86.19
2022-10-28T09:45:24.155Z,85.46
2022-10-28T09:46:32.019Z,85.17
2022-10-28T09:47:40.414Z,85.01
2022-10-28T09:48:45.816Z,85.36
2022-10-28T09:49:50.244Z,84.86
2022-10-28T09:50:55.277Z,84.10
2022-10-28T09:52:06.672Z,83.88
2022-10-28T09:53:12.645Z,84.02
2022-10-28T09:54:14.663Z,84.61
2022-10-28T09:55:20.119Z,84.86
2022-10-28T09:56:21.736Z,84.83
2022-10-28T09:57:29.320Z,85.04
2022-10-28T09:58:32.501Z,84.65
2022-10-28T09:59:34.464Z,84.85
2022-10-28T10:00:36.948Z,84.53
2022-10-28T10:01:41.996Z,83.96
2022-10-28T10:02:44.458Z,84.58
2022-10-28T10:03:48.726Z,85.53
2022-10-28T10:04:50.197Z,85.85
2022-10-28T10:05:56.347Z,84.96
2022-10-28T10:07:02.201Z,84.58
2022-10-28T10:08:05.256Z,84.60
2022-10-28T10:09:17.576Z,84.60
2022-10-28T10:10:24.423Z,84.31
2022-10-28T10:11:32.880Z,84.63
2022-10-28T10:12:34.426Z,84.15
2022-10-28T10:13:39.131Z,84.01
2022-10-28T10:14:44.360Z,83.79
2022-10-28T10:15:50.968Z,83.52
2022-10-28T10:16:57.176Z,83.19
2022-10-28T10:18:00.324Z,82.92
2022-10-28T10:19:05.017Z,83.53
2022-10-28T10:20:08.984Z,82.21
2022-10-28T10:21:10.455Z,82.84
2022-10-28T10:22:29.517Z,83.06
2022-10-28T10:23:33.551Z,82.67
2022-10-28T10:24:36.037Z,83.27
2022-10-28T10:25:37.477Z,82.94
2022-10-28T10:26:38.943Z,82.93
2022-10-28T10:27:40.515Z,82.85
2022-10-28T10:28:45.627Z,81.60
2022-10-28T10:29:49.088Z,81.86
2022-10-28T10:30:53.111Z,81.79
2022-10-28T10:32:13.434Z,81.45
2022-10-28T10:33:20.673Z,82.00
2022-10-28T10:34:24.355Z,81.17
2022-10-28T10:35:29.206Z,80.14
2022-10-28T10:36:31.052Z,80.54
2022-10-28T10:37:35.874Z,80.17
2022-10-28T10:38:38.923Z,80.15
2022-10-28T10:39:40.511Z,78.72
2022-10-28T10:40:49.495Z,79.51
2022-10-28T10:41:51.016Z,79.26
2022-10-28T10:43:13.110Z,79.01
2022-10-28T10:44:30.652Z,78.79
2022-10-28T10:45:32.093Z,77.18
2022-10-28T10:46:33.549Z,76.64
2022-10-28T10:47:36.626Z,78.22
2022-10-28T10:48:38.627Z,78.10
2022-10-28T10:49:40.059Z,76.03
2022-10-28T10:50:45.241Z,75.51
2022-10-28T10:51:51.788Z,75.41
2022-10-28T10:52:57.043Z,75.59
2022-10-28T10:53:59.245Z,75.61
2022-10-28T10:55:05.023Z,75.07
2022-10-28T10:56:09.286Z,73.67
2022-10-28T10:57:16.674Z,73.57
2022-10-28T10:58:21.219Z,73.25
2022-10-28T10:59:27.722Z,71.78
2022-10-28T11:00:35.019Z,70.96
2022-10-28T11:01:39.830Z,70.59
2022-10-28T11:02:49.023Z,70.63
2022-10-28T11:05:08.281Z,68.41
2022-10-28T11:06:24.589Z,68.42
2022-10-28T11:07:28.630Z,66.66
2022-10-28T11:08:36.635Z,66.01
2022-10-28T11:09:40.920Z,67.31
2022-10-28T11:10:42.463Z,64.39
2022-10-28T11:11:44.622Z,64.42
2022-10-28T11:12:51.927Z,65.67
2022-10-28T11:14:03.950Z,65.20
2022-10-28T11:15:22.018Z,64.68
2022-10-28T11:16:24.336Z,64.44
2022-10-28T11:17:27.764Z,66.45
2022-10-28T11:18:40.222Z,65.75
2022-10-28T11:19:41.880Z,65.79
2022-10-28T11:20:53.400Z,65.11
2022-10-28T11:22:21.742Z,64.89
2022-10-28T11:23:38.504Z,61.80
2022-10-28T11:25:05.283Z,63.77
2022-10-28T11:26:11.126Z,63.38
2022-10-28T11:27:24.823Z,63.54
2022-10-28T11:28:45.376Z,63.86
2022-10-28T11:29:47.754Z,64.34
2022-10-28T11:31:00.219Z,62.98
2022-10-28T11:32:29.716Z,62.82
2022-10-28T11:33:39.823Z,63.37
2022-10-28T11:35:03.141Z,63.54
2022-10-28T11:36:15.367Z,63.71
2022-10-28T11:37:26.309Z,63.52
2022-10-28T11:38:45.672Z,63.32
2022-10-28T11:40:02.540Z,63.92
2022-10-28T11:41:28.137Z,63.84
2022-10-28T11:42:36.363Z,64.84
2022-10-28T11:43:52.178Z,65.72
2022-10-28T11:45:01.350Z,65.06
2022-10-28T11:46:09.050Z,65.29
2022-10-28T11:47:29.329Z,65.53
2022-10-28T11:48:43.481Z,64.74
2022-10-28T11:50:09.118Z,63.99
2022-10-28T11:51:25.843Z,63.64
2022-10-28T11:52:44.257Z,63.64
2022-10-28T11:54:13.734Z,63.34
2022-10-28T11:55:28.980Z,63.05
2022-10-28T11:56:36.826Z,62.50
2022-10-28T11:57:49.715Z,62.02
2022-10-28T11:59:03.444Z,61.67
2022-10-28T12:00:31.910Z,60.71
2022-10-28T12:01:44.648Z,61.00
2022-10-28T12:03:03.410Z,62.42
2022-10-28T12:04:20.350Z,59.01
2022-10-28T12:05:25.428Z,61.46
2022-10-28T12:06:50.792Z,60.96
2022-10-28T12:08:19.193Z,61.44
2022-10-28T12:09:33.307Z,61.39
2022-10-28T12:10:42.889Z,61.29
2022-10-28T12:12:06.967Z,59.72
2022-10-28T12:13:20.613Z,59.14
2022-10-28T12:14:29.718Z,60.29
2022-10-28T12:15:36.833Z,58.15
2022-10-28T12:16:44.312Z,59.40
2022-10-28T12:17:52.708Z,59.53
2022-10-28T12:18:59.720Z,58.57
2022-10-28T12:20:10.356Z,59.70
2022-10-28T12:21:19.614Z,59.42
2022-10-28T12:22:27.076Z,59.18
2022-10-28T12:23:31.821Z,59.45
2022-10-28T12:24:36.739Z,60.71
2022-10-28T12:25:41.896Z,60.15
2022-10-28T12:26:47.580Z,58.66
2022-10-28T12:27:51.175Z,58.83
2022-10-28T12:28:58.029Z,58.08
2022-10-28T12:30:05.887Z,57.78
2022-10-28T12:31:20.347Z,58.75
2022-10-28T12:32:27.098Z,58.37
2022-10-28T12:33:36.146Z,58.22
2022-10-28T12:34:42.934Z,59.71
2022-10-28T12:35:51.354Z,59.09
2022-10-28T12:36:58.409Z,60.69
2022-10-28T12:38:06.371Z,60.20
2022-10-28T12:39:15.040Z,60.71
2022-10-28T12:40:20.510Z,60.18
2022-10-28T12:41:25.957Z,60.38
2022-10-28T12:42:31.118Z,60.76
2022-10-28T12:43:36.741Z,60.41
2022-10-28T12:44:39.475Z,61.52
2022-10-28T12:45:42.337Z,61.77
2022-10-28T12:46:52.281Z,61.16
2022-10-28T12:48:00.288Z,62.89
2022-10-28T12:49:09.770Z,61.94
2022-10-28T12:50:17.400Z,62.28
2022-10-28T12:51:27.391Z,62.56
2022-10-28T12:52:36.620Z,62.47
2022-10-28T12:53:44.464Z,62.75
2022-10-28T12:54:54.017Z,62.27
2022-10-28T12:55:58.661Z,61.93
2022-10-28T12:57:09.375Z,62.61
2022-10-28T12:58:17.334Z,63.05
2022-10-28T12:59:24.679Z,62.60
2022-10-28T13:00:30.159Z,62.25
2022-10-28T13:01:34.576Z,62.30
2022-10-28T13:02:41.177Z,63.19
2022-10-28T13:03:43.003Z,63.41
2022-10-28T13:04:44.638Z,64.04
2022-10-28T13:05:51.012Z,65.32
2022-10-28T13:07:18.645Z,66.47
2022-10-28T13:11:45.754Z,68.52
2022-10-28T13:13:13.787Z,69.84
2022-10-28T13:14:37.910Z,71.20
2022-10-28T13:15:54.176Z,71.25
2022-10-28T13:17:23.262Z,71.68
2022-10-28T13:19:01.038Z,72.05
2022-10-28T13:20:15.067Z,72.42
2022-10-28T13:21:27.672Z,72.27
2022-10-28T13:22:48.374Z,72.26
2022-10-28T13:23:57.921Z,71.20
2022-10-28T13:25:15.196Z,71.63
2022-10-28T13:26:22.730Z,72.02
2022-10-28T13:27:25.289Z,70.96
2022-10-28T13:28:32.858Z,70.85
2022-10-28T13:29:36.167Z,70.64
2022-10-28T13:30:37.716Z,70.47
2022-10-28T13:31:41.922Z,69.85
2022-10-28T13:32:44.156Z,70.76
2022-10-28T13:33:53.006Z,71.62
2022-10-28T13:34:55.266Z,71.66
2022-10-28T13:36:09.339Z,71.63
2022-10-28T13:37:20.602Z,71.79
2022-10-28T13:38:25.959Z,71.46
2022-10-28T13:39:42.448Z,70.51
2022-10-28T13:41:26.430Z,69.99
2022-10-28T13:42:44.580Z,70.99
2022-10-28T13:44:21.381Z,69.25
2022-10-28T13:45:45.410Z,67.88
2022-10-28T13:47:20.140Z,67.56
2022-10-28T13:49:14.803Z,67.33
2022-10-28T13:50:40.514Z,67.49
2022-10-28T13:51:46.252Z,67.15
2022-10-28T13:53:19.749Z,66.30
2022-10-28T13:54:28.003Z,66.59
2022-10-28T13:55:42.872Z,66.83
2022-10-28T13:56:47.998Z,66.67
2022-10-28T13:57:51.981Z,67.22
2022-10-28T13:58:56.654Z,66.47
2022-10-28T14:00:00.167Z,66.39
2022-10-28T14:01:35.407Z,65.61
2022-10-28T14:02:38.796Z,66.42
2022-10-28T14:03:50.518Z,65.51
2022-10-28T14:04:58.582Z,65.17
2022-10-28T14:06:01.164Z,64.73
2022-10-28T14:07:16.235Z,64.76
2022-10-28T14:08:21.260Z,65.38
2022-10-28T14:09:27.341Z,65.23
2022-10-28T14:10:33.146Z,64.29
2022-10-28T14:11:34.889Z,64.14
2022-10-28T14:12:41.980Z,65.57
2022-10-28T14:13:49.156Z,64.31
2022-10-28T14:15:04.342Z,64.69
2022-10-28T14:16:25.665Z,64.42